Flight Track Log - Related Links

Times and Time Zones

All times are in EDT time to prevent confusion due to time zone crossing. See the N9AM flight status page for this flight to view local times or setup timezone preferences in your user account.

Time Position Orientation Groundspeed Altitude Reporting Facility
EDT Latitude Longitude Course Direction KTS MPH feet Rate Location/Type
Fri 10:01:00 AM 31.7894 -96.8932 56° Northeast  Level FlightAware Approximate
Fri 10:02:00 AM 31.8204 -96.8387 56° Northeast  Level FlightAware Approximate
Fri 10:03:00 AM 31.8513 -96.7841 56° Northeast  Level FlightAware Approximate
Fri 10:04:00 AM 31.8821 -96.7295 56° Northeast  Level FlightAware Approximate
Fri 10:04:18 AM 31.8444 -96.7850 55° Northeast 208 239 5,400  Level Fort Worth Center
Fri 10:05:00 AM 31.9130 -96.6749 56° Northeast  Level FlightAware Approximate
Fri 10:05:18 AM 31.8753 -96.7406 51° Northeast 215 247 6,000  Level Fort Worth Center
Fri 10:06:00 AM 31.9438 -96.6202 56° Northeast  Level FlightAware Approximate
Fri 10:06:18 AM 31.9044 -96.6867 57° Northeast 199 229 6,700  Level Fort Worth Center
Fri 10:07:00 AM 31.9746 -96.5655 56° Northeast  Level FlightAware Approximate
Fri 10:07:18 AM 31.9333 -96.6325 58° Northeast 194 223 7,000  Level Fort Worth Center
Fri 10:08:00 AM 32.0065 -96.5116 55° Northeast  Level FlightAware Approximate
Fri 10:08:18 AM 31.9725 -96.5783 50° Northeast 194 223 7,000  Level Fort Worth Center
Fri 10:09:00 AM 32.0387 -96.4580 55° Northeast  Level FlightAware Approximate
Fri 10:09:18 AM 32.0056 -96.5192 57° Northeast 213 245 7,000  Level Fort Worth Center
Fri 10:10:18 AM 32.0406 -96.4625 54° Northeast 213 245 7,000  Level Fort Worth Center
Fri 10:11:18 AM 32.0736 -96.4081 54° Northeast 213 245 7,000  Level Fort Worth Center
Fri 10:12:18 AM 32.1067 -96.3514 55° Northeast 213 245 7,000  Level Fort Worth Center
Fri 10:13:18 AM 32.1375 -96.2994 55° Northeast 213 245 7,000  Level Fort Worth Center
Fri 10:14:18 AM 32.1744 -96.2403 54° Northeast 218 251 7,000  Level Fort Worth Center
Fri 10:15:18 AM 32.2222 -96.1953 39° Northeast 201 231 7,000  Level Fort Worth Center
Fri 10:16:18 AM 32.2739 -96.1603 30° Northeast 208 239 7,000  Level Fort Worth Center
Fri 10:17:18 AM 32.3258 -96.1228 31° Northeast 208 239 7,000  Level Fort Worth Center
Fri 10:18:18 AM 32.3775 -96.0875 30° Northeast 214 246 7,000  Level Fort Worth Center
Fri 10:19:18 AM 32.4294 -96.0497 32° Northeast 209 241 7,000  Level Fort Worth Center
Fri 10:20:18 AM 32.4792 -96.0147 31° Northeast 204 235 7,000  Level Fort Worth Center
Fri 10:21:18 AM 32.5308 -95.9769 32° Northeast 210 242 7,000  Level Fort Worth Center
Fri 10:22:18 AM 32.5806 -95.9417 31° Northeast 205 236 7,000  Level Fort Worth Center
Fri 10:23:18 AM 32.6322 -95.9036 32° Northeast 211 243 7,000 100 Level Fort Worth Center
Fri 10:24:18 AM 32.6839 -95.8658 32° Northeast 206 237 7,200 500 Climbing Fort Worth Center
Fri 10:25:18 AM 32.7317 -95.8328 30° Northeast 201 231 8,000 700 Climbing Fort Worth Center
Fri 10:26:18 AM 32.7750 -95.8025 30° Northeast 187 215 8,600 500 Climbing Fort Worth Center
Fri 10:27:18 AM 32.8144 -95.7744 31° Northeast 181 208 9,000 -300 Climbing Fort Worth Center
Fri 10:28:18 AM 32.8681 -95.7364 31° Northeast 196 226 8,000  Descending Fort Worth Center
Fri 10:29:18 AM 32.9219 -95.6983 31° Northeast 218 251 9,000 333 Climbing Fort Worth Center
Fri 10:31:18 AM 33.0086 -95.6322 33° Northeast 194 223 9,000 33 Level Fort Worth Center
Fri 10:32:18 AM 33.0581 -95.5917 35° Northeast 204 235 9,100 50 Climbing Fort Worth Center
Fri 10:33:18 AM 33.1100 -95.5558 30° Northeast 209 241 9,100  Level Fort Worth Center
Fri 10:34:18 AM 33.1572 -95.5128 37° Northeast 209 241 9,100  Level Fort Worth Center
Fri 10:35:18 AM 33.1919 -95.4547 54° Northeast 204 235 9,100  Level Fort Worth Center
Fri 10:36:18 AM 33.2222 -95.3944 59° Northeast 204 235 9,100  Level Fort Worth Center
Fri 10:37:18 AM 33.2567 -95.3367 55° Northeast 204 235 9,100 -50 Level Fort Worth Center
Fri 10:38:18 AM 33.2892 -95.2789 56° Northeast 210 242 9,000 -50 Descending Fort Worth Center
Fri 10:39:18 AM 33.3214 -95.2183 57° Northeast 215 247 9,000  Level Fort Worth Center
Fri 10:40:18 AM 33.3539 -95.1628 55° Northeast 210 242 9,000  Level Fort Worth Center
Fri 10:41:18 AM 33.3861 -95.1022 57° Northeast 210 242 9,000  Level Fort Worth Center
Fri 10:42:18 AM 33.4164 -95.0442 58° Northeast 210 242 9,000  Level Fort Worth Center
Fri 10:43:18 AM 33.4486 -94.9861 56° Northeast 215 247 9,000  Level Fort Worth Center
Fri 10:44:18 AM 33.4811 -94.9281 56° Northeast 215 247 9,000  Level Fort Worth Center
Fri 10:45:18 AM 33.5111 -94.8697 58° Northeast 215 247 9,000  Level Fort Worth Center
Fri 10:46:18 AM 33.5433 -94.8092 57° Northeast 215 247 9,000  Level Fort Worth Center
Fri 10:47:18 AM 33.5756 -94.7533 55° Northeast 215 247 9,000  Level Fort Worth Center
Fri 10:48:18 AM 33.6056 -94.6950 58° Northeast 215 247 9,000  Level Fort Worth Center
Fri 10:49:18 AM 33.6375 -94.6342 58° Northeast 215 247 9,000 50 Level Fort Worth Center
Fri 10:50:18 AM 33.6697 -94.5783 55° Northeast 215 247 9,100 50 Climbing Fort Worth Center
Fri 10:51:18 AM 33.7019 -94.5197 57° Northeast 215 247 9,100  Level Fort Worth Center
Fri 10:52:18 AM 33.7339 -94.4589 58° Northeast 215 247 9,100  Level Fort Worth Center
Fri 10:53:18 AM 33.7658 -94.4003 57° Northeast 215 247 9,100 -50 Level Fort Worth Center
Fri 10:54:18 AM 33.7956 -94.3417 59° Northeast 215 247 9,000  Descending Fort Worth Center
Fri 10:55:18 AM 33.8256 -94.2831 58° Northeast 215 247 9,100 50 Climbing Fort Worth Center
Fri 10:56:18 AM 33.8594 -94.2244 55° Northeast 215 247 9,100  Level Fort Worth Center
Fri 10:57:18 AM 33.8894 -94.1683 57° Northeast 215 247 9,100 350 Level Fort Worth Center
Fri 10:58:18 AM 33.9172 -94.1122 59° Northeast 209 241 9,800 656 Climbing Fort Worth Center
Fri 11:00:21 AM 33.9711 -94.0114 57° Northeast 186 214 11,100 459 Climbing Memphis Center
Fri 11:01:21 AM 33.9978 -93.9575 59° Northeast 180 207 11,200 50 Climbing Memphis Center
Fri 11:02:21 AM 34.0286 -93.8986 58° Northeast 192 221 11,200 -50 Level Memphis Center
Fri 11:03:21 AM 34.0594 -93.8422 57° Northeast 198 228 11,100 -50 Descending Memphis Center
Fri 11:04:21 AM 34.0883 -93.7831 59° Northeast 203 234 11,100  Level Memphis Center
Fri 11:05:21 AM 34.1211 -93.7217 57° Northeast 203 234 11,100  Level Memphis Center
Fri 11:06:21 AM 34.1542 -93.6628 56° Northeast 208 239 11,100  Level Memphis Center
Fri 11:07:21 AM 34.1850 -93.6011 59° Northeast 208 239 11,100  Level Memphis Center
Fri 11:08:21 AM 34.2178 -93.5372 58° Northeast 208 239 11,100  Level Memphis Center
Fri 11:09:21 AM 34.2486 -93.4781 58° Northeast 208 239 11,100  Level Memphis Center
Fri 11:10:21 AM 34.2792 -93.4186 58° Northeast 208 239 11,100  Level Memphis Center
Fri 11:11:21 AM 34.3119 -93.3594 56° Northeast 208 239 11,100 50 Level Memphis Center
Fri 11:12:21 AM 34.3408 -93.2925 62° Northeast 213 245 11,200 50 Climbing Memphis Center
Fri 11:13:21 AM 34.3753 -93.2358 54° Northeast 207 238 11,200  Level Memphis Center
Fri 11:14:21 AM 34.4039 -93.1739 61° Northeast 207 238 11,200  Level Memphis Center
Fri 11:15:21 AM 34.4406 -93.1222 49° Northeast 207 238 11,200  Level Memphis Center
Fri 11:16:21 AM 34.4814 -93.0733 45° Northeast 207 238 11,200  Level Memphis Center
Fri 11:17:21 AM 34.5219 -93.0217 46° Northeast 202 232 11,200  Level Memphis Center
Fri 11:18:21 AM 34.5628 -92.9700 46° Northeast 208 239 11,200 -50 Level Memphis Center
Fri 11:19:22 AM 34.6014 -92.9256 43° Northeast 212 244 11,100 -76 Descending Memphis Center
Fri 11:19:40 AM 34.6119 -92.9108 49° Northeast 213 245 11,100 102 Level Memphis Center
Fri 11:20:21 AM 34.6442 -92.8689 47° Northeast 208 239 11,200  Climbing Memphis Center
Fri 11:20:41 AM 34.6569 -92.8517 48° Northeast 211 243 11,100  Descending Memphis Center
Fri 11:21:21 AM 34.6847 -92.8169 46° Northeast 208 239 11,200  Climbing Memphis Center
Fri 11:21:41 AM 34.6956 -92.8047 43° Northeast 212 244 11,100  Descending Memphis Center
Fri 11:22:21 AM 34.7256 -92.7653 47° Northeast 208 239 11,200  Climbing Memphis Center
Fri 11:22:42 AM 34.7383 -92.7478 48° Northeast 213 245 11,100 -100 Descending Memphis Center
Fri 11:23:21 AM 34.7661 -92.7158 43° Northeast 208 239 11,100 -98 Level Memphis Center
Fri 11:23:43 AM 34.7769 -92.6983 53° Northeast 212 244 11,000  Descending Memphis Center
Fri 11:24:21 AM 34.8067 -92.6611 46° Northeast 208 239 11,100  Climbing Memphis Center
Fri 11:24:50 AM 34.8217 -92.6414 47° Northeast 211 243 11,000  Descending Memphis Center
Fri 11:25:21 AM 34.8453 -92.6117 46° Northeast 213 245 11,100  Climbing Memphis Center
Fri 11:25:51 AM 34.8644 -92.5869 47° Northeast 210 242 11,000  Descending Memphis Center
Fri 11:26:21 AM 34.8878 -92.5597 44° Northeast 213 245 11,100  Climbing Memphis Center
Fri 11:26:51 AM 34.9028 -92.5372 51° Northeast 211 243 11,000  Descending Memphis Center
Fri 11:27:21 AM 34.9283 -92.5050 46° Northeast 213 245 11,100  Climbing Memphis Center
Fri 11:27:46 AM 34.9414 -92.4875 48° Northeast 212 244 11,000  Descending Memphis Center
Fri 11:28:21 AM 34.9689 -92.4553 44° Northeast 213 245 11,100  Climbing Memphis Center
Fri 11:28:53 AM 34.9881 -92.4281 49° Northeast 213 245 11,000  Descending Memphis Center
Fri 11:29:21 AM 35.0094 -92.4006 46° Northeast 213 245 11,100  Climbing Memphis Center
Fri 11:30:00 AM 35.0328 -92.3733 44° Northeast 214 246 11,000  Descending Memphis Center
Fri 11:30:21 AM 35.0500 -92.3483 50° Northeast 213 245 11,100  Climbing Memphis Center
Fri 11:31:00 AM 35.0692 -92.3158 54° Northeast 210 242 11,000  Descending Memphis Center
Fri 11:31:21 AM 35.0842 -92.2933 51° Northeast 213 245 11,100  Climbing Memphis Center
Fri 11:32:01 AM 35.1036 -92.2581 56° Northeast 208 239 11,000  Descending Memphis Center
Fri 11:32:21 AM 35.1164 -92.2331 58° Northeast 226 260 11,100 75 Climbing Memphis Center
Fri 11:33:21 AM 35.1486 -92.1728 57° Northeast 227 261 11,100  Level Memphis Center
Fri 11:34:21 AM 35.1808 -92.1100 58° Northeast 227 261 11,100 -50 Level Memphis Center
Fri 11:35:21 AM 35.2108 -92.0472 60° Northeast 222 255 11,000 -50 Descending Memphis Center
Fri 11:36:21 AM 35.2553 -91.9947 44° Northeast 222 255 11,000  Level Memphis Center
Fri 11:37:21 AM 35.2978 -91.9419 45° Northeast 217 250 11,000  Level Memphis Center
Fri 11:38:21 AM 35.3422 -91.8919 43° Northeast 212 244 11,000  Level Memphis Center
Fri 11:39:21 AM 35.3825 -91.8367 48° Northeast 212 244 11,000  Level Memphis Center
Fri 11:40:21 AM 35.4289 -91.7864 41° Northeast 217 250 11,000  Level Memphis Center
Fri 11:41:21 AM 35.4711 -91.7336 46° Northeast 217 250 11,000  Level Memphis Center
Fri 11:42:21 AM 35.5156 -91.6833 43° Northeast 217 250 11,000  Level Memphis Center
Fri 11:43:21 AM 35.5642 -91.6383 37° Northeast 217 250 11,000  Level Memphis Center
Fri 11:44:21 AM 35.6206 -91.6161 18° North 205 236 11,000 50 Level Memphis Center
Fri 11:45:21 AM 35.6750 -91.5914 20° North 200 230 11,100  Climbing Memphis Center
Fri 11:46:21 AM 35.7275 -91.5642 23° Northeast 200 230 11,000 -50 Descending Memphis Center
Fri 11:47:21 AM 35.7839 -91.5367 22° Northeast 206 237 11,000  Level Memphis Center
Fri 11:48:21 AM 35.8406 -91.5119 19° North 211 243 11,000  Level Memphis Center
Fri 11:49:21 AM 35.8950 -91.4844 22° Northeast 211 243 11,000  Level Memphis Center
Fri 11:50:21 AM 35.9475 -91.4544 25° Northeast 211 243 11,000 -250 Level Memphis Center
Fri 11:51:21 AM 35.9997 -91.4294 21° North 211 243 10,500 -650 Descending Memphis Center
Fri 11:52:21 AM 36.0522 -91.3967 27° Northeast 225 259 9,700 -750 Descending Memphis Center
Fri 11:53:21 AM 36.1233 -91.3694 17° North 233 268 9,000 -700 Descending Memphis Center
Fri 11:54:21 AM 36.1819 -91.3392 23° Northeast 233 268 8,300 -750 Descending Memphis Center
Fri 11:55:21 AM 36.2364 -91.3064 26° Northeast 225 259 7,500 -650 Descending Memphis Center
Fri 11:56:21 AM 36.2969 -91.2761 22° Northeast 225 259 7,000 -250 Descending Memphis Center
Fri 11:57:21 AM 36.3578 -91.2511 18° North 225 259 7,000  Level Memphis Center
Fri 11:58:21 AM 36.4058 -91.2258 23° Northeast 220 253 7,000  Level Memphis Center
Fri 11:59:21 AM 36.4603 -91.1981 22° Northeast 207 238 7,000 -50 Level Memphis Center
Fri 12:00:21 PM 36.5144 -91.1756 18° North 207 238 6,900  Descending Memphis Center
Fri 12:01:21 PM 36.5667 -91.1528 19° North 207 238 7,000 50 Climbing Memphis Center
Fri 12:02:21 PM 36.6211 -91.1247 22° Northeast 207 238 7,000  Level Memphis Center
Fri 12:03:21 PM 36.6672 -91.0967 26° Northeast 196 226 7,000  Level Memphis Center
Fri 12:04:21 PM 36.7194 -91.0714 21° North 190 219 7,000 30 Level Memphis Center
Fri 12:06:43 PM 36.8464 -91.0061 22° Northeast 201 231 7,100 30 Climbing Kansas City Center
Fri 12:07:44 PM 36.8986 -90.9803 22° Northeast 200 230 7,100  Level Kansas City Center
Fri 12:08:48 PM 36.9517 -90.9547 21° North 203 234 7,100  Level Kansas City Center
Fri 12:09:48 PM 37.0039 -90.9267 23° Northeast 203 234 7,100  Level Kansas City Center
Fri 12:10:50 PM 37.0575 -90.9000 22° Northeast 205 236 7,100 -49 Level Kansas City Center
Fri 12:11:51 PM 37.1206 -90.8675 22° Northeast 206 237 7,000 -48 Descending Kansas City Center
Fri 12:12:55 PM 37.1739 -90.8406 22° Northeast 206 237 7,000  Level Kansas City Center
Fri 12:13:55 PM 37.2269 -90.8136 22° Northeast 206 237 7,000  Level Kansas City Center
Fri 12:14:59 PM 37.2806 -90.7858 22° Northeast 207 238 7,000  Level Kansas City Center
Fri 12:17:02 PM 37.3931 -90.7289 22° Northeast 209 241 7,000  Level Kansas City Center
Fri 12:18:02 PM 37.4464 -90.7017 22° Northeast 209 241 7,000  Level Kansas City Center
Fri 12:19:06 PM 37.5000 -90.6742 22° Northeast 208 239 7,000  Level Kansas City Center
Fri 12:20:07 PM 37.5544 -90.6447 23° Northeast 211 243 7,000  Level Kansas City Center
Fri 12:21:08 PM 37.6089 -90.6175 22° Northeast 212 244 7,000  Level Kansas City Center
Fri 12:22:09 PM 37.6636 -90.5900 22° Northeast 211 243 7,000  Level Kansas City Center
Fri 12:23:12 PM 37.7269 -90.5556 23° Northeast 207 238 7,000  Level Kansas City Center
Fri 12:24:12 PM 37.7800 -90.5297 21° North 206 237 7,000  Level Kansas City Center
Fri 12:25:16 PM 37.8319 -90.5028 22° Northeast 203 234 7,000 48 Level Kansas City Center
Fri 12:26:17 PM 37.8842 -90.4750 23° Northeast 204 235 7,100 49 Climbing Kansas City Center
Fri 12:27:18 PM 37.9369 -90.4467 23° Northeast 207 238 7,100  Level Kansas City Center
Fri 12:28:21 PM 37.9886 -90.4197 22° Northeast 201 231 7,100  Level Kansas City Center
Fri 12:29:22 PM 38.0522 -90.3875 22° Northeast 205 236 7,100  Level Kansas City Center
Fri 12:30:23 PM 38.1039 -90.3581 24° Northeast 202 232 7,100 -48 Level Kansas City Center
Fri 12:31:27 PM 38.1597 -90.3303 21° North 201 231 7,000 -48 Descending Kansas City Center
Fri 12:32:28 PM 38.2114 -90.3028 23° Northeast 201 231 7,000  Level Kansas City Center
Fri 12:33:31 PM 38.2622 -90.2769 22° Northeast 198 228 7,000  Level Kansas City Center
Fri 12:34:32 PM 38.3158 -90.2483 23° Northeast 195 224 7,000  Level Kansas City Center
Fri 12:35:32 PM 38.3656 -90.2214 23° Northeast 194 223 7,000  Level Kansas City Center
Fri 12:36:36 PM 38.4167 -90.1958 21° North 195 224 7,000  Level Kansas City Center
Fri 12:37:37 PM 38.4692 -90.1694 21° North 199 229 7,000  Level Kansas City Center
Fri 12:38:38 PM 38.5208 -90.1406 24° Northeast 201 231 7,000  Level Kansas City Center
Fri 12:39:42 PM 38.5744 -90.1128 22° Northeast 205 236 7,000  Level Kansas City Center
Fri 12:40:44 PM 38.6272 -90.0842 23° Northeast 207 238 7,000  Level Kansas City Center
Fri 12:41:45 PM 38.6911 -90.0508 22° Northeast 208 239 7,000  Level Kansas City Center
Fri 12:42:46 PM 38.7442 -90.0228 22° Northeast 208 239 7,000  Level Kansas City Center
Fri 12:43:49 PM 38.7967 -89.9947 23° Northeast 207 238 7,000  Level Kansas City Center
Fri 12:44:50 PM 38.8481 -89.9675 22° Northeast 204 235 7,000  Level Kansas City Center
Fri 12:45:50 PM 38.9000 -89.9392 23° Northeast 203 234 7,000  Level Kansas City Center
Fri 12:46:54 PM 38.9589 -89.9075 23° Northeast 198 228 7,000  Level Kansas City Center
Fri 12:47:55 PM 39.0106 -89.8806 22° Northeast 198 228 7,000  Level Kansas City Center
Fri 12:48:56 PM 39.0678 -89.8492 23° Northeast 205 236 7,000  Level Kansas City Center
Fri 12:49:59 PM 39.1194 -89.8214 23° Northeast 202 232 7,000  Level Kansas City Center
Fri 12:51:01 PM 39.1767 -89.7908 22° Northeast 207 238 7,000  Level Kansas City Center
Fri 12:52:01 PM 39.2217 -89.7639 25° Northeast 206 237 7,000  Level Kansas City Center
Fri 12:53:05 PM 39.2764 -89.7367 21° North 209 241 7,000  Level Kansas City Center
Fri 12:54:05 PM 39.3400 -89.7011 23° Northeast 208 239 7,000  Level Kansas City Center
Fri 12:55:09 PM 39.3944 -89.6722 22° Northeast 210 242 7,000  Level Kansas City Center
Fri 12:56:09 PM 39.4475 -89.6431 23° Northeast 209 241 7,000  Level Kansas City Center
Fri 12:57:10 PM 39.5014 -89.6142 22° Northeast 210 242 7,000  Level Kansas City Center
Fri 12:58:14 PM 39.5550 -89.5853 23° Northeast 209 241 7,000  Level Kansas City Center
Fri 12:59:15 PM 39.6075 -89.5553 24° Northeast 208 239 7,000  Level Kansas City Center
Fri 01:00:16 PM 39.6611 -89.5247 24° Northeast 209 241 7,000  Level Kansas City Center
Fri 01:01:19 PM 39.7167 -89.4958 22° Northeast 209 241 7,000  Level Kansas City Center
Fri 01:02:22 PM 39.7806 -89.4606 23° Northeast 208 239 7,000  Level Kansas City Center
Fri 01:03:23 PM 39.8339 -89.4308 23° Northeast 208 239 7,000  Level Kansas City Center
Fri 01:04:23 PM 39.8869 -89.4006 24° Northeast 208 239 7,000  Level Kansas City Center
Fri 01:05:27 PM 39.9414 -89.3714 22° Northeast 211 243 7,000  Level Kansas City Center
Fri 01:06:27 PM 39.9964 -89.3419 22° Northeast 213 245 7,000  Level Kansas City Center
Fri 01:07:31 PM 40.0494 -89.3122 23° Northeast 209 241 7,000  Level Kansas City Center
Fri 01:08:32 PM 40.1131 -89.2758 24° Northeast 208 239 7,000  Level Kansas City Center
Fri 01:09:36 PM 40.1714 -89.2444 22° Northeast 209 241 7,000  Level Chicago Center

Login

Don't have an account? Register now (free) for customized features, flight alerts, and more!